Time;durP1;ratioP1;P1;durP2;ratioP2;P2;SDS_P1;SDS_P2;PMS_P1;PMS_P2;Temp;Humidity;BMP_temperature;BMP_pressure;BME280_temperature;BME280_humidity;BME280_pressure;Samples;Min_cycle;Max_cycle;Signal;HPM_P1;HPM_P2
2022/02/18 00:01:56;;;;;;;17.13;2.42;;;5.60;99.90;;;;;;5038348;28;20485;-68
2022/02/18 00:04:22;;;;;;;15.77;2.53;;;5.60;99.90;;;;;;5026483;28;20386;-68
2022/02/18 00:06:47;;;;;;;17.23;1.85;;;5.50;99.90;;;;;;5038755;28;20110;-68
2022/02/18 00:09:13;;;;;;;13.50;2.50;;;5.50;99.90;;;;;;5038135;28;20048;-68
2022/02/18 00:11:39;;;;;;;17.55;2.90;;;5.50;99.90;;;;;;5042876;28;20037;-69
2022/02/18 00:14:04;;;;;;;11.68;2.17;;;5.50;99.90;;;;;;5039276;28;20060;-69
2022/02/18 00:16:30;;;;;;;11.88;2.00;;;5.50;99.90;;;;;;5035812;28;20118;-68
2022/02/18 00:18:57;;;;;;;10.80;1.75;;;5.40;99.90;;;;;;5041378;28;20110;-68
2022/02/18 00:21:23;;;;;;;11.13;1.70;;;5.40;99.90;;;;;;5038693;28;20622;-68
2022/02/18 00:23:48;;;;;;;14.50;1.88;;;5.40;99.90;;;;;;5040484;28;20033;-68
2022/02/18 00:26:14;;;;;;;14.65;1.90;;;5.40;99.90;;;;;;5041367;28;20120;-68
2022/02/18 00:28:40;;;;;;;11.70;1.88;;;5.40;99.90;;;;;;5038294;28;20044;-68
2022/02/18 00:31:06;;;;;;;8.95;1.48;;;5.30;99.90;;;;;;5037788;28;20148;-68
2022/02/18 00:33:32;;;;;;;10.48;1.88;;;5.30;99.90;;;;;;5041265;28;20506;-68
2022/02/18 00:35:57;;;;;;;12.00;1.83;;;5.20;99.90;;;;;;5041760;28;20074;-68
2022/02/18 00:38:23;;;;;;;13.60;1.80;;;5.30;99.90;;;;;;5037471;28;20048;-68
2022/02/18 00:40:49;;;;;;;15.13;2.58;;;5.20;99.90;;;;;;5039022;28;20180;-68
2022/02/18 00:43:15;;;;;;;16.73;1.77;;;5.20;99.90;;;;;;5042139;28;20083;-68
2022/02/18 00:45:41;;;;;;;15.82;1.65;;;5.20;99.90;;;;;;5037245;28;20385;-69
2022/02/18 00:48:06;;;;;;;14.45;1.98;;;5.20;99.90;;;;;;5041922;28;20036;-68
2022/02/18 00:50:32;;;;;;;9.55;1.20;;;5.10;99.90;;;;;;5042366;28;20390;-68
2022/02/18 00:52:58;;;;;;;11.68;1.55;;;5.10;99.90;;;;;;5041467;28;20481;-68
2022/02/18 00:55:23;;;;;;;8.75;1.50;;;5.00;99.90;;;;;;5034757;28;20041;-68
2022/02/18 00:57:49;;;;;;;14.07;1.67;;;5.00;99.90;;;;;;5041834;28;20044;-68
2022/02/18 01:00:16;;;;;;;18.75;2.08;;;5.00;99.90;;;;;;5043081;28;20370;-68
2022/02/18 01:02:43;;;;;;;10.45;1.67;;;5.00;99.90;;;;;;5043391;28;20048;-68
2022/02/18 01:05:09;;;;;;;13.43;1.73;;;5.00;99.90;;;;;;5045464;28;20037;-68
2022/02/18 01:07:35;;;;;;;17.35;2.67;;;5.00;99.90;;;;;;5040828;28;20033;-68
2022/02/18 01:10:03;;;;;;;13.32;1.52;;;5.00;99.90;;;;;;5040361;28;20041;-68
2022/02/18 01:12:29;;;;;;;11.55;1.60;;;5.00;99.90;;;;;;5044740;28;20142;-68
2022/02/18 01:14:54;;;;;;;16.90;2.00;;;5.00;99.90;;;;;;5041713;28;20037;-68
2022/02/18 01:17:20;;;;;;;10.40;2.20;;;4.90;99.90;;;;;;5040491;28;20099;-68
2022/02/18 01:19:46;;;;;;;15.10;1.73;;;5.00;99.90;;;;;;5060104;28;20041;-68
2022/02/18 01:22:12;;;;;;;16.27;1.67;;;4.90;99.90;;;;;;5042418;28;20120;-67
2022/02/18 01:24:38;;;;;;;13.77;2.03;;;4.90;99.90;;;;;;5041744;28;20037;-68
2022/02/18 01:27:04;;;;;;;12.95;1.67;;;4.90;99.90;;;;;;5041997;28;20056;-68
2022/02/18 01:29:30;;;;;;;13.25;1.88;;;4.90;99.90;;;;;;5042928;28;20033;-68
2022/02/18 01:31:56;;;;;;;13.02;1.88;;;4.80;99.90;;;;;;5040928;28;20044;-68
2022/02/18 01:34:21;;;;;;;15.30;1.95;;;4.80;99.90;;;;;;5046616;28;20074;-68
2022/02/18 01:36:47;;;;;;;17.70;1.92;;;4.70;99.90;;;;;;5042678;28;20119;-68
2022/02/18 01:39:12;;;;;;;13.32;1.75;;;4.70;99.90;;;;;;5040246;28;20076;-68
2022/02/18 01:41:38;;;;;;;13.98;2.60;;;4.70;99.90;;;;;;5043436;28;20128;-68
2022/02/18 01:44:05;;;;;;;14.80;2.00;;;4.70;99.90;;;;;;5043895;28;20060;-68
2022/02/18 01:46:31;;;;;;;16.75;2.40;;;4.70;99.90;;;;;;5040293;28;20037;-68
2022/02/18 01:48:59;;;;;;;14.40;2.47;;;4.60;99.90;;;;;;5044818;28;20052;-68
2022/02/18 01:51:25;;;;;;;12.93;1.65;;;4.70;99.90;;;;;;5042815;28;20114;-68
2022/02/18 01:53:53;;;;;;;15.85;2.20;;;4.70;99.90;;;;;;5043139;28;20508;-68
2022/02/18 01:56:20;;;;;;;10.68;1.50;;;4.70;99.90;;;;;;5038611;28;20064;-67
2022/02/18 01:58:46;;;;;;;14.80;2.33;;;4.70;99.90;;;;;;5044625;28;20045;-68
2022/02/18 02:01:12;;;;;;;12.52;1.95;;;4.70;99.90;;;;;;5037481;28;20048;-67
2022/02/18 02:03:39;;;;;;;13.27;1.50;;;4.70;99.90;;;;;;5041927;28;20056;-68
2022/02/18 02:06:05;;;;;;;11.35;1.67;;;4.70;99.90;;;;;;5043199;28;20033;-67
2022/02/18 02:08:35;;;;;;;15.07;1.77;;;4.70;99.90;;;;;;5039454;28;20047;-68
2022/02/18 02:11:01;;;;;;;13.02;1.73;;;4.80;99.90;;;;;;5042632;28;20112;-67
2022/02/18 02:13:31;;;;;;;13.15;1.77;;;4.80;99.90;;;;;;5045189;28;20171;-67
2022/02/18 02:15:57;;;;;;;9.10;1.77;;;4.80;99.90;;;;;;5038961;28;20500;-67
2022/02/18 02:18:23;;;;;;;12.40;1.83;;;4.80;99.90;;;;;;5039793;28;20517;-67
2022/02/18 02:20:49;;;;;;;10.32;1.65;;;4.80;99.90;;;;;;5040072;28;20077;-68
2022/02/18 02:23:16;;;;;;;11.32;1.75;;;4.80;99.90;;;;;;5040191;28;20044;-68
2022/02/18 02:25:42;;;;;;;11.52;1.50;;;4.80;99.90;;;;;;5040542;28;20076;-67
2022/02/18 02:28:07;;;;;;;16.20;1.63;;;4.80;99.90;;;;;;5043762;28;20075;-67
2022/02/18 02:30:33;;;;;;;13.48;1.70;;;4.80;99.90;;;;;;5042515;28;20115;-68
2022/02/18 02:32:59;;;;;;;8.80;1.67;;;4.80;99.90;;;;;;5039820;28;20375;-67
2022/02/18 02:35:25;;;;;;;13.27;1.23;;;4.80;99.90;;;;;;5026718;28;20068;-67
2022/02/18 02:37:50;;;;;;;15.02;1.83;;;4.80;99.90;;;;;;5038999;28;20036;-68
2022/02/18 02:40:18;;;;;;;6.55;1.50;;;4.80;99.90;;;;;;5041442;28;20123;-68
2022/02/18 02:42:47;;;;;;;10.93;1.60;;;4.90;99.90;;;;;;5043224;28;20040;-68
2022/02/18 02:45:14;;;;;;;14.60;2.47;;;4.80;99.90;;;;;;5041413;28;20095;-68
2022/02/18 02:47:43;;;;;;;12.85;3.08;;;4.80;99.90;;;;;;5039488;28;20041;-68
2022/02/18 02:50:09;;;;;;;9.38;1.98;;;4.90;99.90;;;;;;5042315;28;20119;-68
2022/02/18 02:52:36;;;;;;;9.10;1.25;;;4.80;99.90;;;;;;5042846;28;21596;-68
2022/02/18 02:55:03;;;;;;;12.95;1.50;;;4.90;99.90;;;;;;5038118;28;20211;-67
2022/02/18 02:57:28;;;;;;;9.75;1.52;;;4.90;99.90;;;;;;5041161;28;20493;-67
2022/02/18 02:59:54;;;;;;;9.57;1.17;;;4.90;99.90;;;;;;5041858;28;20037;-67
2022/02/18 03:02:20;;;;;;;10.05;1.17;;;4.90;99.90;;;;;;5042701;28;20562;-67
2022/02/18 03:04:45;;;;;;;7.10;0.95;;;4.90;99.90;;;;;;5039805;28;20040;-67
2022/02/18 03:07:11;;;;;;;11.68;1.17;;;4.90;99.90;;;;;;5044327;28;20029;-67
2022/02/18 03:09:37;;;;;;;9.60;0.98;;;4.90;99.90;;;;;;5042205;28;20037;-67
2022/02/18 03:12:03;;;;;;;12.85;1.27;;;4.90;99.90;;;;;;5037876;28;20048;-68
2022/02/18 03:14:28;;;;;;;8.15;1.00;;;4.90;99.90;;;;;;5044170;28;20084;-67
2022/02/18 03:16:55;;;;;;;7.50;0.73;;;4.90;99.90;;;;;;5037905;28;20057;-68
2022/02/18 03:19:20;;;;;;;10.43;1.10;;;4.90;99.90;;;;;;5038546;28;20045;-68
2022/02/18 03:21:51;;;;;;;10.27;1.30;;;4.90;99.90;;;;;;5043317;28;20041;-68
2022/02/18 03:24:21;;;;;;;9.18;1.20;;;5.00;99.90;;;;;;5038738;28;20034;-68
2022/02/18 03:26:47;;;;;;;10.80;1.55;;;5.00;99.90;;;;;;5036218;28;20502;-68
2022/02/18 03:29:13;;;;;;;16.35;1.38;;;5.00;99.90;;;;;;5042371;28;20128;-68
2022/02/18 03:31:38;;;;;;;11.25;1.10;;;5.10;99.90;;;;;;5046061;28;20124;-68
2022/02/18 03:34:04;;;;;;;11.80;1.35;;;5.00;99.90;;;;;;5041370;28;20418;-68
2022/02/18 03:36:30;;;;;;;10.07;1.63;;;5.10;99.90;;;;;;5044229;28;20378;-68
2022/02/18 03:38:55;;;;;;;11.98;1.42;;;5.10;99.90;;;;;;5046477;28;20212;-68
2022/02/18 03:41:22;;;;;;;10.82;1.58;;;5.10;99.90;;;;;;5044656;28;20041;-68
2022/02/18 03:43:48;;;;;;;7.80;1.50;;;5.10;99.90;;;;;;5039218;28;20508;-68
2022/02/18 03:46:14;;;;;;;9.43;1.60;;;5.10;99.90;;;;;;5043029;28;20411;-68
2022/02/18 03:48:40;;;;;;;9.07;1.33;;;5.20;99.90;;;;;;5041872;28;20346;-68
2022/02/18 03:51:06;;;;;;;9.13;1.75;;;5.20;99.90;;;;;;5040249;28;20065;-68
2022/02/18 03:53:31;;;;;;;14.52;1.55;;;5.20;99.90;;;;;;5038381;28;20044;-68
2022/02/18 03:56:01;;;;;;;9.20;1.17;;;5.20;99.90;;;;;;5046514;28;20028;-67
2022/02/18 03:58:27;;;;;;;9.13;1.70;;;5.20;99.90;;;;;;5040323;28;20106;-67
2022/02/18 04:00:53;;;;;;;9.02;1.25;;;5.20;99.90;;;;;;5040111;28;20041;-68
2022/02/18 04:03:20;;;;;;;11.25;1.40;;;5.30;99.90;;;;;;5037700;28;20076;-67
2022/02/18 04:05:46;;;;;;;9.57;1.58;;;5.30;99.90;;;;;;5039848;28;20044;-68
2022/02/18 04:08:12;;;;;;;9.20;1.83;;;5.30;99.90;;;;;;5040631;28;20158;-68
2022/02/18 04:10:38;;;;;;;13.18;2.00;;;5.30;99.90;;;;;;5039672;28;20128;-67
2022/02/18 04:13:04;;;;;;;12.05;1.65;;;5.30;99.90;;;;;;5042758;28;20053;-68
2022/02/18 04:15:30;;;;;;;9.48;1.67;;;5.30;99.90;;;;;;5038958;28;20048;-68
2022/02/18 04:17:56;;;;;;;10.38;2.00;;;5.40;99.90;;;;;;5034943;28;20124;-68
2022/02/18 04:20:23;;;;;;;12.65;2.22;;;5.40;99.90;;;;;;5037800;28;20665;-68
2022/02/18 04:22:49;;;;;;;13.65;2.03;;;5.40;99.90;;;;;;5039812;28;20135;-68
2022/02/18 04:25:15;;;;;;;15.48;2.50;;;5.40;99.90;;;;;;5036489;28;20506;-68
2022/02/18 04:27:40;;;;;;;14.85;2.75;;;5.40;99.90;;;;;;5042117;28;20059;-68
2022/02/18 04:30:07;;;;;;;12.55;2.42;;;5.50;99.90;;;;;;5037603;28;20355;-68
2022/02/18 04:32:33;;;;;;;9.82;2.35;;;5.50;99.90;;;;;;5053879;28;20044;-68
2022/02/18 04:34:59;;;;;;;18.65;2.88;;;5.40;99.90;;;;;;5037692;28;20079;-68
2022/02/18 04:37:25;;;;;;;25.80;3.28;;;5.50;99.90;;;;;;5037767;28;20470;-68
2022/02/18 04:39:51;;;;;;;16.67;2.75;;;5.50;99.90;;;;;;5043082;28;20114;-68
2022/02/18 04:42:16;;;;;;;18.73;2.85;;;5.50;99.90;;;;;;5040664;28;20071;-68
2022/02/18 04:44:42;;;;;;;17.10;3.72;;;5.50;99.90;;;;;;5041187;28;20463;-68
2022/02/18 04:47:08;;;;;;;14.30;3.03;;;5.50;99.90;;;;;;5043553;28;20051;-68
2022/02/18 04:49:33;;;;;;;19.40;3.00;;;5.60;99.90;;;;;;5043100;28;20116;-68
2022/02/18 04:51:59;;;;;;;17.48;3.13;;;5.60;99.90;;;;;;5042708;28;20448;-68
2022/02/18 04:54:25;;;;;;;17.33;3.47;;;5.60;99.90;;;;;;5046484;28;20036;-67
2022/02/18 04:56:50;;;;;;;17.48;2.78;;;5.60;99.90;;;;;;5039179;28;20037;-67
2022/02/18 04:59:19;;;;;;;20.15;3.38;;;5.60;99.90;;;;;;5044506;28;20102;-68
2022/02/18 05:01:45;;;;;;;15.85;3.03;;;5.60;99.90;;;;;;5043651;28;20056;-68
2022/02/18 05:04:10;;;;;;;20.08;3.55;;;5.70;99.90;;;;;;5043538;28;20030;-68
2022/02/18 05:06:36;;;;;;;18.00;3.42;;;5.60;99.90;;;;;;5042239;28;20042;-68
2022/02/18 05:09:02;;;;;;;20.95;3.20;;;5.70;99.90;;;;;;5042355;28;20037;-68
2022/02/18 05:11:28;;;;;;;20.42;3.70;;;5.70;99.90;;;;;;5042443;28;20636;-67
2022/02/18 05:13:54;;;;;;;21.15;3.03;;;5.70;99.90;;;;;;5034120;28;20065;-67
2022/02/18 05:16:20;;;;;;;18.77;3.65;;;5.70;99.90;;;;;;5043300;28;20049;-67
2022/02/18 05:18:47;;;;;;;24.55;3.97;;;5.70;99.90;;;;;;5043493;28;20128;-67
2022/02/18 05:21:17;;;;;;;16.20;3.90;;;5.70;99.90;;;;;;5040467;28;20049;-67
2022/02/18 05:23:44;;;;;;;17.48;3.70;;;5.70;99.90;;;;;;5038507;28;21273;-67
2022/02/18 05:26:09;;;;;;;19.27;3.58;;;5.70;99.90;;;;;;5042872;28;20037;-68
2022/02/18 05:28:35;;;;;;;21.80;3.42;;;5.70;99.90;;;;;;5037929;28;20183;-68
2022/02/18 05:31:01;;;;;;;21.98;3.60;;;5.80;99.90;;;;;;5042774;28;20440;-68
2022/02/18 05:33:27;;;;;;;21.45;3.22;;;5.70;99.90;;;;;;5041064;28;20412;-68
2022/02/18 05:35:52;;;;;;;23.92;3.83;;;5.70;99.90;;;;;;5040430;28;20041;-68
2022/02/18 05:38:18;;;;;;;26.00;3.95;;;5.80;99.90;;;;;;5043339;28;20114;-68
2022/02/18 05:40:44;;;;;;;21.42;3.83;;;5.70;99.90;;;;;;5043753;28;20054;-68
2022/02/18 05:43:09;;;;;;;20.40;4.28;;;5.70;99.90;;;;;;5038350;28;20136;-68
2022/02/18 05:45:35;;;;;;;22.95;4.03;;;5.80;99.90;;;;;;5044222;28;20041;-69
2022/02/18 05:48:01;;;;;;;20.67;4.05;;;5.80;99.90;;;;;;5044005;28;20037;-69
2022/02/18 05:50:27;;;;;;;22.20;4.82;;;5.80;99.90;;;;;;5054574;28;20067;-69
2022/02/18 05:52:52;;;;;;;20.33;4.20;;;5.70;99.90;;;;;;5046535;28;20124;-69
2022/02/18 05:55:18;;;;;;;21.13;4.53;;;5.80;99.90;;;;;;5027693;28;20055;-69
2022/02/18 05:57:44;;;;;;;22.58;4.05;;;5.80;99.90;;;;;;5041156;28;20048;-69
2022/02/18 06:00:10;;;;;;;25.45;4.75;;;5.80;99.90;;;;;;5043446;28;20072;-69
2022/02/18 06:02:36;;;;;;;20.88;4.10;;;5.80;99.90;;;;;;5029368;28;20049;-69
2022/02/18 06:05:06;;;;;;;28.75;4.30;;;5.80;99.90;;;;;;5044087;28;20408;-69
2022/02/18 06:07:32;;;;;;;26.13;3.88;;;5.80;99.90;;;;;;5047343;28;20186;-68
2022/02/18 06:09:59;;;;;;;18.15;4.32;;;5.80;99.90;;;;;;5044485;28;20120;-67
2022/02/18 06:12:25;;;;;;;24.08;4.05;;;5.80;99.90;;;;;;5042814;28;20445;-67
2022/02/18 06:14:50;;;;;;;29.45;4.95;;;5.70;99.90;;;;;;5046617;28;20042;-67
2022/02/18 06:17:17;;;;;;;20.10;4.05;;;5.80;99.90;;;;;;5044734;28;20099;-67
2022/02/18 06:19:43;;;;;;;24.73;4.10;;;5.70;99.90;;;;;;5045295;28;20132;-67
2022/02/18 06:22:09;;;;;;;22.20;5.95;;;5.70;99.90;;;;;;5038952;28;20484;-67
2022/02/18 06:24:34;;;;;;;20.48;4.72;;;5.70;99.90;;;;;;5039849;28;20056;-68
2022/02/18 06:27:00;;;;;;;28.15;5.63;;;5.70;99.90;;;;;;5042490;28;20056;-68
2022/02/18 06:29:26;;;;;;;19.35;6.07;;;5.70;99.90;;;;;;5038451;28;20408;-68
2022/02/18 06:31:51;;;;;;;27.58;6.63;;;5.70;99.90;;;;;;5040021;28;20044;-68
2022/02/18 06:34:17;;;;;;;29.73;5.97;;;5.70;99.90;;;;;;5043406;28;20047;-68
2022/02/18 06:36:43;;;;;;;24.08;6.32;;;5.70;99.90;;;;;;5043304;28;20405;-68
2022/02/18 06:39:09;;;;;;;31.98;6.18;;;5.70;99.90;;;;;;5053868;28;20377;-68
2022/02/18 06:41:35;;;;;;;27.60;6.55;;;5.70;99.90;;;;;;5044495;28;20060;-68
2022/02/18 06:44:01;;;;;;;29.67;6.35;;;5.80;99.90;;;;;;5042074;28;20048;-68
2022/02/18 06:46:27;;;;;;;31.85;8.85;;;5.80;99.90;;;;;;5041753;28;20033;-68
2022/02/18 06:48:52;;;;;;;27.65;7.18;;;5.70;99.90;;;;;;5046498;28;20040;-68
2022/02/18 06:51:18;;;;;;;26.00;8.35;;;5.80;99.90;;;;;;5043654;28;20098;-68
2022/02/18 06:53:44;;;;;;;31.65;8.30;;;5.80;99.90;;;;;;5048174;28;20486;-68
2022/02/18 06:56:10;;;;;;;21.75;6.65;;;5.80;99.90;;;;;;5043707;28;20057;-68
2022/02/18 06:58:35;;;;;;;40.28;8.55;;;5.90;99.90;;;;;;5044123;28;20041;-67
2022/02/18 07:01:02;;;;;;;24.85;7.93;;;5.90;99.90;;;;;;5048195;28;20041;-67
2022/02/18 07:03:27;;;;;;;33.50;8.15;;;5.90;99.90;;;;;;5043345;28;20044;-67
2022/02/18 07:05:55;;;;;;;26.98;8.07;;;5.90;99.90;;;;;;5042969;28;20484;-67
2022/02/18 07:08:21;;;;;;;27.55;6.97;;;5.90;99.90;;;;;;5040695;28;20037;-67
2022/02/18 07:10:46;;;;;;;32.95;7.03;;;6.00;99.90;;;;;;5048584;28;20037;-67
2022/02/18 07:13:12;;;;;;;31.55;7.70;;;6.00;99.90;;;;;;5042477;28;20045;-67
2022/02/18 07:15:38;;;;;;;28.85;6.60;;;6.00;99.90;;;;;;5036419;28;20041;-67
2022/02/18 07:18:04;;;;;;;35.83;6.97;;;6.10;99.90;;;;;;5040585;28;20049;-67
2022/02/18 07:20:30;;;;;;;31.45;7.30;;;6.10;99.90;;;;;;5043921;28;20043;-67
2022/02/18 07:22:56;;;;;;;30.58;7.00;;;6.10;99.90;;;;;;5043121;28;20061;-67
2022/02/18 07:25:22;;;;;;;29.38;6.32;;;6.10;99.90;;;;;;5042264;28;20486;-67
2022/02/18 07:27:48;;;;;;;31.40;6.32;;;6.20;99.90;;;;;;5053842;28;20048;-67
2022/02/18 07:30:14;;;;;;;26.60;5.68;;;6.30;99.90;;;;;;5038521;28;20489;-68
2022/02/18 07:32:41;;;;;;;31.27;5.90;;;6.30;99.90;;;;;;5040413;28;20374;-68
2022/02/18 07:35:07;;;;;;;31.40;6.07;;;6.30;99.90;;;;;;5045881;28;20378;-68
2022/02/18 07:37:34;;;;;;;28.27;5.22;;;6.30;99.90;;;;;;5044609;28;20044;-68
2022/02/18 07:39:59;;;;;;;29.00;6.57;;;6.30;99.90;;;;;;5041491;28;20045;-68
2022/02/18 07:42:25;;;;;;;32.75;6.38;;;6.30;99.90;;;;;;5042562;28;20483;-68
2022/02/18 07:44:51;;;;;;;31.38;9.30;;;6.40;99.90;;;;;;5039508;28;20547;-68
2022/02/18 07:47:16;;;;;;;26.42;4.93;;;6.40;99.90;;;;;;5044890;28;20039;-68
2022/02/18 07:49:43;;;;;;;33.97;5.80;;;6.40;99.90;;;;;;5045697;28;20148;-68
2022/02/18 07:52:10;;;;;;;29.00;6.38;;;6.40;99.90;;;;;;5042889;28;20037;-67
2022/02/18 07:54:36;;;;;;;28.80;5.63;;;6.40;99.90;;;;;;5042819;28;20134;-67
2022/02/18 07:57:04;;;;;;;24.25;4.80;;;6.40;99.90;;;;;;5045787;28;20037;-67
2022/02/18 07:59:29;;;;;;;30.95;5.32;;;6.40;99.90;;;;;;5039448;28;20124;-67
2022/02/18 08:01:56;;;;;;;37.35;6.10;;;6.50;99.90;;;;;;5041620;28;20442;-67
2022/02/18 08:04:21;;;;;;;29.85;5.10;;;6.50;99.90;;;;;;5028041;28;20045;-67
2022/02/18 08:06:47;;;;;;;34.42;6.32;;;6.50;99.90;;;;;;5036574;28;20379;-67
2022/02/18 08:09:13;;;;;;;36.70;5.32;;;6.50;99.90;;;;;;5039771;28;20047;-67
2022/02/18 08:11:38;;;;;;;38.03;6.85;;;6.40;99.90;;;;;;5040575;28;20068;-67
2022/02/18 08:14:04;;;;;;;35.35;5.93;;;6.50;99.90;;;;;;5036844;28;20033;-67
2022/02/18 08:16:32;;;;;;;35.80;5.45;;;6.50;99.90;;;;;;5040336;28;20069;-68
2022/02/18 08:18:59;;;;;;;28.00;4.65;;;6.50;99.90;;;;;;5042395;28;20070;-67
2022/02/18 08:21:25;;;;;;;25.48;4.95;;;6.50;99.90;;;;;;5040802;28;20067;-67
2022/02/18 08:23:52;;;;;;;38.40;5.07;;;6.50;99.90;;;;;;5036848;28;20482;-67
2022/02/18 08:26:22;;;;;;;35.63;5.10;;;6.50;99.90;;;;;;5043780;28;20098;-67
2022/02/18 08:28:48;;;;;;;37.35;5.70;;;6.50;99.90;;;;;;5036065;28;20470;-67
2022/02/18 08:31:14;;;;;;;36.60;5.25;;;6.50;99.90;;;;;;5039005;28;20041;-67
2022/02/18 08:33:41;;;;;;;27.08;4.95;;;6.50;99.90;;;;;;5039830;28;20049;-67
2022/02/18 08:36:07;;;;;;;30.40;4.80;;;6.50;99.90;;;;;;5042454;28;20102;-67
2022/02/18 08:38:34;;;;;;;25.75;4.35;;;6.60;99.90;;;;;;5040030;28;20478;-66
2022/02/18 08:40:59;;;;;;;27.08;4.75;;;6.60;99.90;;;;;;5039033;28;20123;-67
2022/02/18 08:43:26;;;;;;;23.80;4.38;;;6.60;99.90;;;;;;5043269;28;20629;-67
2022/02/18 08:45:52;;;;;;;28.42;4.65;;;6.70;99.90;;;;;;5038288;28;20072;-66
2022/02/18 08:48:17;;;;;;;22.55;4.13;;;6.60;99.90;;;;;;5039473;28;20056;-66
2022/02/18 08:50:43;;;;;;;22.98;4.30;;;6.60;99.90;;;;;;5041448;28;20045;-66
2022/02/18 08:53:09;;;;;;;26.80;4.80;;;6.70;99.90;;;;;;5043320;28;20072;-66
2022/02/18 08:55:35;;;;;;;17.95;4.00;;;6.70;99.90;;;;;;5039319;28;20056;-66
2022/02/18 08:58:01;;;;;;;20.95;4.25;;;6.80;99.90;;;;;;5025428;28;20107;-66
2022/02/18 09:00:27;;;;;;;18.60;4.65;;;6.80;99.90;;;;;;5038967;28;20048;-66
2022/02/18 09:02:53;;;;;;;20.48;3.80;;;6.80;99.90;;;;;;5041111;28;20409;-66
2022/02/18 09:05:18;;;;;;;19.27;4.90;;;6.80;99.90;;;;;;5038523;28;20021;-66
2022/02/18 09:07:45;;;;;;;24.70;4.85;;;6.90;99.90;;;;;;5041748;28;20423;-66
2022/02/18 09:10:11;;;;;;;14.65;4.50;;;6.90;99.90;;;;;;5037490;28;20120;-66
2022/02/18 09:12:39;;;;;;;19.00;4.30;;;7.00;99.90;;;;;;5041853;28;20041;-67
2022/02/18 09:15:10;;;;;;;22.30;4.80;;;7.00;99.90;;;;;;5027974;28;20056;-66
2022/02/18 09:17:36;;;;;;;14.85;4.07;;;7.10;99.90;;;;;;5037837;28;20056;-66
2022/02/18 09:20:05;;;;;;;14.95;3.85;;;7.10;99.90;;;;;;5047493;28;20044;-66
2022/02/18 09:22:31;;;;;;;15.43;4.25;;;7.10;99.90;;;;;;5046601;28;20045;-67
2022/02/18 09:24:57;;;;;;;13.95;3.53;;;7.10;99.90;;;;;;5041761;28;20037;-67
2022/02/18 09:27:23;;;;;;;11.75;3.35;;;7.20;99.90;;;;;;5041130;28;20386;-67
2022/02/18 09:29:49;;;;;;;11.10;3.65;;;7.30;99.90;;;;;;5043593;28;20102;-67
2022/02/18 09:32:16;;;;;;;9.27;3.20;;;7.30;99.90;;;;;;5045348;28;20050;-67
2022/02/18 09:34:43;;;;;;;11.73;3.28;;;7.30;99.90;;;;;;5046165;28;20045;-67
2022/02/18 09:37:14;;;;;;;14.23;3.85;;;7.40;99.90;;;;;;5043524;28;20493;-67
2022/02/18 09:39:42;;;;;;;12.35;3.55;;;7.50;99.90;;;;;;5047916;28;20048;-67
2022/02/18 09:42:10;;;;;;;17.48;4.10;;;7.50;99.90;;;;;;5045766;28;20477;-67
2022/02/18 09:44:37;;;;;;;15.18;4.13;;;7.60;99.90;;;;;;5041591;28;20049;-67
2022/02/18 09:47:03;;;;;;;12.13;3.40;;;7.60;99.90;;;;;;5042541;28;20043;-67
2022/02/18 09:49:29;;;;;;;11.68;3.55;;;7.70;99.90;;;;;;5039878;28;20029;-67
2022/02/18 09:51:56;;;;;;;13.63;4.03;;;7.80;99.90;;;;;;5039641;28;20048;-67
2022/02/18 09:54:26;;;;;;;9.20;3.45;;;7.80;99.90;;;;;;5045412;28;20041;-67
2022/02/18 09:56:52;;;;;;;10.82;3.28;;;7.90;99.90;;;;;;5046185;28;20119;-67
2022/02/18 09:59:18;;;;;;;11.90;3.65;;;8.00;99.90;;;;;;5046635;28;20118;-67
2022/02/18 10:01:45;;;;;;;14.27;3.88;;;8.10;99.90;;;;;;5037730;28;20033;-67
2022/02/18 10:04:11;;;;;;;14.43;4.10;;;8.10;99.90;;;;;;5045448;28;20191;-67
2022/02/18 10:06:38;;;;;;;15.57;3.65;;;8.10;99.90;;;;;;5041711;28;20112;-67
2022/02/18 10:09:04;;;;;;;12.40;3.60;;;8.20;99.90;;;;;;5044513;28;20191;-67
2022/02/18 10:11:52;;;;;;;10.13;3.60;;;8.30;99.90;;;;;;5045451;28;20517;-66
2022/02/18 10:14:19;;;;;;;13.75;4.22;;;8.30;99.90;;;;;;5040356;28;20037;-66
2022/02/18 10:16:44;;;;;;;8.18;3.92;;;8.40;99.90;;;;;;5036978;28;20421;-66
2022/02/18 10:19:11;;;;;;;11.23;3.85;;;8.50;99.90;;;;;;5044104;28;20033;-67
2022/02/18 10:21:39;;;;;;;11.88;4.00;;;8.60;99.90;;;;;;5046234;28;20533;-67
2022/02/18 10:24:10;;;;;;;9.40;3.40;;;8.70;99.90;;;;;;5046041;28;20369;-67
2022/02/18 10:26:38;;;;;;;12.38;3.80;;;8.70;99.90;;;;;;5040827;28;20053;-67
2022/02/18 10:29:05;;;;;;;10.30;3.38;;;8.80;99.90;;;;;;5042691;28;20059;-67
2022/02/18 10:31:31;;;;;;;13.75;3.75;;;8.80;99.90;;;;;;5041348;28;20035;-66
2022/02/18 10:34:05;;;;;;;9.18;4.13;;;8.90;99.90;;;;;;5044753;28;20037;-66
2022/02/18 10:36:42;;;;;;;13.20;4.00;;;8.90;99.90;;;;;;5041064;28;20061;-66
2022/02/18 10:39:26;;;;;;;12.45;3.65;;;9.00;99.90;;;;;;5042260;28;20069;-66
2022/02/18 10:41:59;;;;;;;13.32;3.85;;;9.00;99.90;;;;;;5041265;28;20076;-66
2022/02/18 10:44:33;;;;;;;11.13;4.07;;;9.00;99.90;;;;;;5038498;28;20555;-67
2022/02/18 10:47:05;;;;;;;10.57;3.92;;;9.10;99.90;;;;;;5031702;28;20040;-66
2022/02/18 10:49:33;;;;;;;14.27;4.32;;;9.10;99.90;;;;;;5044824;28;20121;-66
2022/02/18 10:52:11;;;;;;;15.00;4.72;;;9.10;99.90;;;;;;5039463;28;20036;-66
2022/02/18 10:54:37;;;;;;;14.27;4.40;;;9.10;99.90;;;;;;5046292;28;20032;-66
2022/02/18 10:57:15;;;;;;;12.50;4.03;;;9.20;99.90;;;;;;5042465;28;20040;-67
2022/02/18 10:59:41;;;;;;;13.32;3.97;;;9.20;99.90;;;;;;5041267;28;20147;-67
2022/02/18 11:02:07;;;;;;;10.95;3.97;;;9.20;99.90;;;;;;5038214;28;21643;-67
2022/02/18 11:04:33;;;;;;;9.18;4.00;;;9.20;99.90;;;;;;5047161;28;20033;-67
2022/02/18 11:07:13;;;;;;;11.68;4.13;;;9.20;99.90;;;;;;5041308;28;20114;-67
2022/02/18 11:09:40;;;;;;;14.90;4.53;;;9.30;99.90;;;;;;5041578;28;20037;-66
2022/02/18 11:12:11;;;;;;;10.55;3.92;;;9.40;99.90;;;;;;5037363;28;20044;-66
2022/02/18 11:14:40;;;;;;;10.32;3.88;;;9.40;99.90;;;;;;5041331;28;20047;-67
2022/02/18 11:17:06;;;;;;;11.48;3.90;;;9.50;99.90;;;;;;5041959;28;20067;-67
2022/02/18 11:19:32;;;;;;;10.60;3.70;;;9.60;99.90;;;;;;5042343;28;20127;-66
2022/02/18 11:21:59;;;;;;;8.70;3.65;;;9.60;99.90;;;;;;5036460;28;20497;-66
2022/02/18 11:24:25;;;;;;;9.02;3.47;;;9.60;99.90;;;;;;5046217;28;20500;-67
2022/02/18 11:26:51;;;;;;;10.93;4.38;;;9.70;99.90;;;;;;5043032;28;20112;-67
2022/02/18 11:29:20;;;;;;;8.00;3.40;;;9.70;99.90;;;;;;5043422;28;20037;-67
2022/02/18 11:31:51;;;;;;;10.38;3.65;;;9.80;99.90;;;;;;5039043;28;20053;-67
2022/02/18 11:34:49;;;;;;;8.25;3.75;;;9.90;99.90;;;;;;5036516;28;20489;-67
2022/02/18 11:37:15;;;;;;;7.97;3.78;;;9.90;99.90;;;;;;5042737;28;20110;-67
2022/02/18 11:39:43;;;;;;;9.25;4.03;;;9.90;99.90;;;;;;5044668;28;20536;-67
2022/02/18 11:42:47;;;;;;;10.68;3.90;;;9.90;99.90;;;;;;5041500;28;20048;-67
2022/02/18 11:45:16;;;;;;;7.97;3.33;;;10.00;99.90;;;;;;5043823;28;20040;-67
2022/02/18 11:47:42;;;;;;;6.72;2.75;;;10.00;99.90;;;;;;5044136;28;20040;-67
2022/02/18 11:50:13;;;;;;;6.38;2.53;;;10.00;99.90;;;;;;5042711;28;20076;-67
2022/02/18 11:52:43;;;;;;;3.85;2.20;;;10.10;99.90;;;;;;5041152;28;20044;-67
2022/02/18 11:55:29;;;;;;;6.80;2.63;;;10.10;99.90;;;;;;5037962;28;20033;-67
2022/02/18 11:58:18;;;;;;;3.00;2.10;;;10.20;99.90;;;;;;5043213;28;20125;-67
2022/02/18 12:00:49;;;;;;;4.03;2.08;;;10.30;99.90;;;;;;5041742;28;20055;-67
2022/02/18 12:03:17;;;;;;;3.20;1.70;;;10.30;99.90;;;;;;5037161;28;20059;-67
2022/02/18 12:06:20;;;;;;;4.80;1.60;;;10.40;99.90;;;;;;5043262;28;20370;-67
2022/02/18 12:08:49;;;;;;;2.75;1.45;;;10.50;99.90;;;;;;5042963;28;20029;-67
2022/02/18 12:11:19;;;;;;;4.90;1.80;;;10.50;99.90;;;;;;5042710;28;20044;-67
2022/02/18 12:13:52;;;;;;;4.72;1.75;;;10.60;99.90;;;;;;5042409;28;20528;-66
2022/02/18 12:16:19;;;;;;;1.92;1.52;;;10.60;99.90;;;;;;5039658;28;20469;-67
2022/02/18 12:19:07;;;;;;;4.38;1.73;;;10.60;99.90;;;;;;5040721;28;20068;-67
2022/02/18 12:21:53;;;;;;;4.07;1.65;;;10.60;99.90;;;;;;5045343;28;20973;-67
2022/02/18 12:24:48;;;;;;;6.30;1.92;;;10.70;99.90;;;;;;5040310;28;20064;-67
2022/02/18 12:27:20;;;;;;;2.00;1.40;;;10.70;99.90;;;;;;5042807;28;20041;-67
2022/02/18 12:29:50;;;;;;;2.65;1.38;;;10.80;99.90;;;;;;5043189;28;20064;-67
2022/02/18 12:32:17;;;;;;;3.13;1.30;;;10.80;99.90;;;;;;5041574;28;20490;-67
2022/02/18 12:34:44;;;;;;;2.13;1.08;;;10.90;99.90;;;;;;5039568;28;20052;-67
2022/02/18 12:37:12;;;;;;;1.27;0.98;;;10.90;99.90;;;;;;5041184;28;20509;-67
2022/02/18 12:39:45;;;;;;;4.50;1.30;;;10.90;99.90;;;;;;5042866;28;20036;-66
2022/02/18 12:42:13;;;;;;;2.60;1.10;;;10.80;99.90;;;;;;5046021;28;20029;-66
2022/02/18 12:44:52;;;;;;;3.00;1.00;;;10.90;99.90;;;;;;5043995;28;20033;-66
2022/02/18 12:47:19;;;;;;;1.70;1.25;;;10.90;99.90;;;;;;5042772;28;20501;-66
2022/02/18 12:49:44;;;;;;;1.45;1.13;;;10.90;99.90;;;;;;5045756;28;20060;-66